createdAt,value
2022-10-03T00:00:04.806Z,81.79
2022-10-03T00:03:05.685Z,81.76
2022-10-03T00:05:46.206Z,81.60
2022-10-03T00:08:37.574Z,82.17
2022-10-03T00:11:28.687Z,82.37
2022-10-03T00:14:03.936Z,82.08
2022-10-03T00:16:46.421Z,82.44
2022-10-03T00:19:23.237Z,82.45
2022-10-03T00:22:07.674Z,82.20
2022-10-03T00:25:19.075Z,81.85
2022-10-03T00:27:57.054Z,82.27
2022-10-03T00:30:26.351Z,82.20
2022-10-03T00:33:20.176Z,81.69
2022-10-03T00:36:07.655Z,81.72
2022-10-03T00:38:56.983Z,81.83
2022-10-03T00:41:39.735Z,81.85
2022-10-03T00:44:41.833Z,82.03
2022-10-03T00:47:35.844Z,82.00
2022-10-03T00:50:39.121Z,82.59
2022-10-03T00:53:27.047Z,82.26
2022-10-03T00:56:28.823Z,81.94
2022-10-03T00:59:14.328Z,82.23
2022-10-03T01:01:47.074Z,81.75
2022-10-03T01:04:40.690Z,82.73
2022-10-03T01:07:30.740Z,81.96
2022-10-03T01:10:28.128Z,82.44
2022-10-03T01:13:15.592Z,82.70
2022-10-03T01:15:53.161Z,82.15
2022-10-03T01:18:44.872Z,82.05
2022-10-03T01:21:27.713Z,81.71
2022-10-03T01:24:27.543Z,82.29
2022-10-03T01:27:11.950Z,82.15
2022-10-03T01:30:11.543Z,82.90
2022-10-03T01:32:48.896Z,82.27
2022-10-03T01:35:35.070Z,82.22
2022-10-03T01:38:21.091Z,82.42
2022-10-03T01:41:00.360Z,82.98
2022-10-03T01:43:38.237Z,82.00
2022-10-03T01:46:30.678Z,82.63
2022-10-03T01:49:13.939Z,82.40
2022-10-03T01:52:05.060Z,82.93
2022-10-03T01:54:59.425Z,82.87
2022-10-03T01:57:52.481Z,82.37
2022-10-03T02:00:26.487Z,82.82
2022-10-03T02:03:23.014Z,82.70
2022-10-03T02:06:28.519Z,82.44
2022-10-03T02:12:10.045Z,81.52
2022-10-03T02:15:34.322Z,81.98
2022-10-03T02:18:15.243Z,82.55
2022-10-03T02:20:49.702Z,82.29
2022-10-03T02:23:39.939Z,82.10
2022-10-03T02:26:46.013Z,82.69
2022-10-03T02:29:32.329Z,83.01
2022-10-03T02:32:54.121Z,82.88
2022-10-03T02:35:57.756Z,82.35
2022-10-03T02:39:01.767Z,82.89
2022-10-03T02:42:06.394Z,82.45
2022-10-03T02:45:13.718Z,82.89
2022-10-03T02:48:31.171Z,82.79
2022-10-03T02:51:37.161Z,82.40
2022-10-03T02:54:38.749Z,82.97
2022-10-03T02:57:48.272Z,83.28
2022-10-03T03:00:21.927Z,83.33
2022-10-03T03:03:39.792Z,83.66
2022-10-03T03:06:31.019Z,82.66
2022-10-03T03:09:42.775Z,82.98
2022-10-03T03:12:43.484Z,83.87
2022-10-03T03:15:55.908Z,83.68
2022-10-03T03:18:34.467Z,83.32
2022-10-03T03:21:12.719Z,84.03
2022-10-03T03:24:01.458Z,83.59
2022-10-03T03:26:55.232Z,83.60
2022-10-03T03:29:36.818Z,83.08
2022-10-03T03:32:28.262Z,82.75
2022-10-03T03:35:06.010Z,83.73
2022-10-03T03:37:41.826Z,83.38
2022-10-03T03:40:29.568Z,82.85
2022-10-03T03:43:51.485Z,82.59
2022-10-03T03:46:38.840Z,83.01
2022-10-03T03:49:20.338Z,82.09
2022-10-03T03:52:04.410Z,82.32
2022-10-03T03:54:55.444Z,81.83
2022-10-03T03:58:02.719Z,81.89
2022-10-03T04:01:01.129Z,82.06
2022-10-03T04:03:51.180Z,81.72
2022-10-03T04:06:36.531Z,81.83
2022-10-03T04:09:42.117Z,82.03
2022-10-03T04:12:37.444Z,82.71
2022-10-03T04:15:32.439Z,82.63
2022-10-03T04:18:48.182Z,82.35
2022-10-03T04:21:52.337Z,82.66
2022-10-03T04:24:54.325Z,82.61
2022-10-03T04:27:40.363Z,82.42
2022-10-03T04:30:12.997Z,82.19
2022-10-03T04:33:00.569Z,81.95
2022-10-03T04:36:07.916Z,82.23
2022-10-03T04:38:47.067Z,81.72
2022-10-03T04:41:28.627Z,82.27
2022-10-03T04:44:03.651Z,82.83
2022-10-03T04:46:36.548Z,82.65
2022-10-03T04:49:20.164Z,82.71
2022-10-03T04:51:58.498Z,82.78
2022-10-03T04:54:43.522Z,83.63
2022-10-03T04:57:25.721Z,83.10
2022-10-03T05:00:04.032Z,83.54
2022-10-03T05:02:43.060Z,83.11
2022-10-03T05:05:41.201Z,83.03
2022-10-03T05:08:21.495Z,83.67
2022-10-03T05:11:03.928Z,83.39
2022-10-03T05:13:42.387Z,83.82
2022-10-03T05:16:23.896Z,84.39
2022-10-03T05:18:58.056Z,83.19
2022-10-03T05:21:38.131Z,83.71
2022-10-03T05:24:17.947Z,83.23
2022-10-03T05:26:59.243Z,83.40
2022-10-03T05:29:37.949Z,82.82
2022-10-03T05:32:17.974Z,83.66
2022-10-03T05:35:22.906Z,82.78
2022-10-03T05:38:26.748Z,83.13
2022-10-03T05:41:04.523Z,83.43
2022-10-03T05:43:49.929Z,83.62
2022-10-03T05:46:49.214Z,83.18
2022-10-03T05:49:46.993Z,83.87
2022-10-03T05:52:55.212Z,83.73
2022-10-03T05:55:54.858Z,83.69
2022-10-03T05:58:46.569Z,83.37
2022-10-03T06:01:56.451Z,83.28
2022-10-03T06:04:50.971Z,83.23
2022-10-03T06:07:48.112Z,82.30
2022-10-03T06:10:44.539Z,82.50
2022-10-03T06:13:21.290Z,82.30
2022-10-03T06:15:58.793Z,81.96
2022-10-03T06:18:53.449Z,83.00
2022-10-03T06:21:47.536Z,82.83
2022-10-03T06:24:39.910Z,81.92
2022-10-03T06:27:42.056Z,82.80
2022-10-03T06:30:50.608Z,83.27
2022-10-03T06:34:09.337Z,82.72
2022-10-03T06:37:06.876Z,82.60
2022-10-03T06:40:29.093Z,82.19
2022-10-03T06:43:17.470Z,81.35
2022-10-03T06:46:22.645Z,81.41
2022-10-03T06:49:14.432Z,82.25
2022-10-03T06:51:58.160Z,81.76
2022-10-03T06:55:09.074Z,81.24
2022-10-03T06:58:07.787Z,81.20
2022-10-03T07:00:49.911Z,81.20
2022-10-03T07:03:49.429Z,80.81
2022-10-03T07:06:48.395Z,81.31
2022-10-03T07:09:54.287Z,80.96
2022-10-03T07:13:02.426Z,81.62
2022-10-03T07:16:20.915Z,80.60
2022-10-03T07:19:29.456Z,80.27
2022-10-03T07:22:43.699Z,80.12
2022-10-03T07:25:44.724Z,80.20
2022-10-03T07:28:48.168Z,80.56
2022-10-03T07:31:34.629Z,80.31
2022-10-03T07:34:40.388Z,80.67
2022-10-03T07:37:46.495Z,80.69
2022-10-03T07:40:50.273Z,80.80
2022-10-03T07:43:53.699Z,80.90
2022-10-03T07:47:09.568Z,80.08
2022-10-03T07:50:10.174Z,80.27
2022-10-03T07:53:11.775Z,80.27
2022-10-03T07:56:16.189Z,80.02
2022-10-03T07:59:23.301Z,79.90
2022-10-03T08:02:08.930Z,79.82
2022-10-03T08:05:33.048Z,79.18
2022-10-03T08:08:50.335Z,78.89
2022-10-03T08:12:03.168Z,78.32
2022-10-03T08:14:50.503Z,78.04
2022-10-03T08:18:16.885Z,78.19
2022-10-03T08:20:54.515Z,77.90
2022-10-03T08:24:03.662Z,77.75
2022-10-03T08:27:00.508Z,77.60
2022-10-03T08:30:07.314Z,77.61
2022-10-03T08:32:52.038Z,77.31
2022-10-03T08:35:45.907Z,77.44
2022-10-03T08:38:39.365Z,77.18
2022-10-03T08:41:51.999Z,76.93
2022-10-03T08:45:01.792Z,76.85
2022-10-03T08:47:56.168Z,76.88
2022-10-03T08:51:04.260Z,76.37
2022-10-03T08:54:12.363Z,76.34
2022-10-03T08:57:00.201Z,76.06
2022-10-03T09:00:09.753Z,76.02
2022-10-03T09:03:31.494Z,75.94
2022-10-03T09:06:31.881Z,75.50
2022-10-03T09:09:38.456Z,75.43
2022-10-03T09:12:43.798Z,75.16
2022-10-03T09:15:30.299Z,74.34
2022-10-03T09:18:42.946Z,73.67
2022-10-03T09:21:49.583Z,73.39
2022-10-03T09:24:37.849Z,73.19
2022-10-03T09:27:31.876Z,72.95
2022-10-03T09:30:24.736Z,72.17
2022-10-03T09:33:31.666Z,72.63
2022-10-03T09:36:25.190Z,73.89
2022-10-03T09:39:26.587Z,74.13
2022-10-03T09:42:23.258Z,73.55
2022-10-03T09:45:22.745Z,73.59
2022-10-03T09:48:42.498Z,74.02
2022-10-03T09:51:34.437Z,74.67
2022-10-03T09:54:35.643Z,73.98
2022-10-03T09:57:38.791Z,74.29
2022-10-03T10:00:23.865Z,74.74
2022-10-03T10:03:37.431Z,74.42
2022-10-03T10:06:29.269Z,74.05
2022-10-03T10:09:26.711Z,72.57
2022-10-03T10:12:42.549Z,73.99
2022-10-03T10:15:47.437Z,74.47
2022-10-03T10:19:07.956Z,74.47
2022-10-03T10:22:11.636Z,75.26
2022-10-03T10:25:24.875Z,75.72
2022-10-03T10:28:15.201Z,75.17
2022-10-03T10:31:03.338Z,74.64
2022-10-03T10:34:06.440Z,74.02
2022-10-03T10:37:10.803Z,72.67
2022-10-03T10:40:12.626Z,72.72
2022-10-03T10:43:14.802Z,72.33
2022-10-03T10:45:56.132Z,73.23
2022-10-03T10:49:22.925Z,73.21
2022-10-03T10:52:34.068Z,73.21
2022-10-03T10:55:52.333Z,72.54
2022-10-03T10:58:58.079Z,71.79
2022-10-03T11:02:11.370Z,72.11
2022-10-03T11:05:21.970Z,72.22
2022-10-03T11:08:43.033Z,71.36
2022-10-03T11:11:44.277Z,71.45
2022-10-03T11:14:38.422Z,72.45
2022-10-03T11:17:39.600Z,72.67
2022-10-03T11:21:04.717Z,71.61
2022-10-03T11:24:07.833Z,72.09
2022-10-03T11:27:20.505Z,72.89
2022-10-03T11:30:19.354Z,73.41
2022-10-03T11:33:24.443Z,72.85
2022-10-03T11:36:13.420Z,73.41
2022-10-03T11:38:53.770Z,73.67
2022-10-03T11:41:34.881Z,73.83
2022-10-03T11:44:16.581Z,73.68
2022-10-03T11:46:58.063Z,73.77
2022-10-03T11:49:58.393Z,73.89
2022-10-03T11:52:32.973Z,73.72
2022-10-03T11:55:17.278Z,73.16
2022-10-03T11:57:52.670Z,73.63
2022-10-03T12:00:23.306Z,73.34
2022-10-03T12:03:13.763Z,72.89
2022-10-03T12:05:52.733Z,73.01
2022-10-03T12:08:46.785Z,73.26
2022-10-03T12:11:20.827Z,73.43
2022-10-03T12:14:12.544Z,72.76
2022-10-03T12:16:57.768Z,72.64
2022-10-03T12:19:58.108Z,72.40
2022-10-03T12:22:46.930Z,72.29
2022-10-03T12:25:23.780Z,72.08
2022-10-03T12:28:12.108Z,72.26
2022-10-03T12:30:51.634Z,72.23
2022-10-03T12:33:32.772Z,71.88
2022-10-03T12:36:10.676Z,71.79
2022-10-03T12:38:56.053Z,71.87
2022-10-03T12:41:43.763Z,71.92
2022-10-03T12:44:27.465Z,71.62
2022-10-03T12:47:15.893Z,71.76
2022-10-03T12:49:54.321Z,71.88
2022-10-03T12:52:27.162Z,71.77
2022-10-03T12:55:10.115Z,72.04
2022-10-03T12:57:49.780Z,71.71
2022-10-03T13:00:24.913Z,71.71
2022-10-03T13:03:12.220Z,71.70
2022-10-03T13:06:38.898Z,71.22
2022-10-03T13:09:37.240Z,70.94
2022-10-03T13:12:23.006Z,71.51
2022-10-03T13:15:45.564Z,71.26
2022-10-03T13:18:35.260Z,71.48
2022-10-03T13:21:33.424Z,71.49
2022-10-03T13:24:04.590Z,68.60
2022-10-03T13:29:40.784Z,72.06
2022-10-03T13:32:18.515Z,71.65
2022-10-03T13:35:21.407Z,71.05
2022-10-03T13:38:07.311Z,70.57
2022-10-03T13:40:46.362Z,70.26
2022-10-03T13:43:20.040Z,70.49
2022-10-03T13:45:53.550Z,69.93
2022-10-03T13:48:28.363Z,70.19
2022-10-03T13:51:05.509Z,69.91
2022-10-03T13:53:51.863Z,69.99
2022-10-03T13:56:39.408Z,70.08
2022-10-03T13:59:25.702Z,70.01
2022-10-03T14:02:11.122Z,70.08
2022-10-03T14:05:16.821Z,69.74
2022-10-03T14:07:53.919Z,70.58
2022-10-03T14:10:51.930Z,70.73
2022-10-03T14:13:32.192Z,70.71
2022-10-03T14:16:06.955Z,70.91
2022-10-03T14:18:45.076Z,71.10
2022-10-03T14:21:34.072Z,71.01
2022-10-03T14:24:14.379Z,71.31
2022-10-03T14:26:56.376Z,71.35
2022-10-03T14:29:32.457Z,71.46
2022-10-03T14:32:28.186Z,71.67
2022-10-03T14:35:09.248Z,71.66
2022-10-03T14:37:43.647Z,71.94
2022-10-03T14:40:23.830Z,71.37
2022-10-03T14:43:31.092Z,70.83
2022-10-03T14:46:04.106Z,70.01
2022-10-03T14:48:40.036Z,69.39
2022-10-03T14:51:24.259Z,68.61
2022-10-03T14:53:57.279Z,68.87
2022-10-03T14:56:46.066Z,68.65
2022-10-03T14:59:19.187Z,69.09
2022-10-03T15:01:55.708Z,69.41
2022-10-03T15:04:34.976Z,69.57
2022-10-03T15:07:03.708Z,69.89
2022-10-03T15:09:43.018Z,70.76
2022-10-03T15:12:24.571Z,70.09
2022-10-03T15:15:01.345Z,70.23
2022-10-03T15:18:00.400Z,70.84
2022-10-03T15:20:42.970Z,70.97
2022-10-03T15:23:21.048Z,69.29
2022-10-03T15:25:53.824Z,71.22
2022-10-03T15:28:27.696Z,71.37
2022-10-03T15:31:08.407Z,71.55
2022-10-03T15:33:38.706Z,71.53
2022-10-03T15:36:15.864Z,71.24
2022-10-03T15:38:47.430Z,71.60
2022-10-03T15:41:18.063Z,71.46
2022-10-03T15:44:03.925Z,71.11
2022-10-03T15:46:35.805Z,71.25
2022-10-03T15:49:08.418Z,71.78
2022-10-03T15:51:39.620Z,71.96
2022-10-03T15:54:10.215Z,72.05
2022-10-03T15:56:42.253Z,72.02
2022-10-03T15:59:22.013Z,72.07
2022-10-03T16:01:54.521Z,72.17
2022-10-03T16:04:35.576Z,72.22
2022-10-03T16:07:19.464Z,72.11
2022-10-03T16:09:56.223Z,72.08
2022-10-03T16:12:50.658Z,71.95
2022-10-03T16:15:26.786Z,72.36
2022-10-03T16:17:57.927Z,72.50
2022-10-03T16:20:37.568Z,72.56
2022-10-03T16:23:20.804Z,71.98
2022-10-03T16:25:55.527Z,72.32
2022-10-03T16:28:29.484Z,72.46
2022-10-03T16:31:14.045Z,70.96
2022-10-03T16:33:48.434Z,72.19
2022-10-03T16:36:23.343Z,72.53
2022-10-03T16:38:59.279Z,72.58
2022-10-03T16:41:31.769Z,72.95
2022-10-03T16:44:02.841Z,72.90
2022-10-03T16:46:40.686Z,73.20
2022-10-03T16:49:29.863Z,73.16
2022-10-03T16:52:04.527Z,73.05
2022-10-03T16:54:34.708Z,72.92
2022-10-03T16:57:06.980Z,73.04
2022-10-03T16:59:37.466Z,72.78
2022-10-03T17:02:08.214Z,72.75
2022-10-03T17:04:39.917Z,72.91
2022-10-03T17:07:16.082Z,73.00
2022-10-03T17:09:48.462Z,73.13
2022-10-03T17:12:20.076Z,73.63
2022-10-03T17:14:49.431Z,73.64
2022-10-03T17:17:29.936Z,73.27
2022-10-03T17:20:08.865Z,73.52
2022-10-03T17:22:41.943Z,73.43
2022-10-03T17:25:36.230Z,73.64
2022-10-03T17:28:07.382Z,73.40
2022-10-03T17:30:45.978Z,73.60
2022-10-03T17:33:23.477Z,73.77
2022-10-03T17:36:00.224Z,73.96
2022-10-03T17:38:49.305Z,73.58
2022-10-03T17:41:22.257Z,74.11
2022-10-03T17:44:01.682Z,73.62
2022-10-03T17:46:40.112Z,74.15
2022-10-03T17:49:21.894Z,74.26
2022-10-03T17:51:52.346Z,74.49
2022-10-03T17:54:25.432Z,74.19
2022-10-03T17:56:55.135Z,74.34
2022-10-03T17:59:29.143Z,74.70
2022-10-03T18:02:02.385Z,74.54
2022-10-03T18:04:38.275Z,74.50
2022-10-03T18:07:17.609Z,74.48
2022-10-03T18:09:49.104Z,74.87
2022-10-03T18:12:25.144Z,74.84
2022-10-03T18:15:40.919Z,74.25
2022-10-03T18:18:43.724Z,75.12
2022-10-03T18:21:20.259Z,75.08
2022-10-03T18:24:07.672Z,75.19
2022-10-03T18:26:38.623Z,75.14
2022-10-03T18:29:21.917Z,75.57
2022-10-03T18:31:53.890Z,75.53
2022-10-03T18:34:28.167Z,75.56
2022-10-03T18:36:57.823Z,75.77
2022-10-03T18:39:32.597Z,75.73
2022-10-03T18:42:03.219Z,75.19
2022-10-03T18:44:46.287Z,75.25
2022-10-03T18:47:23.280Z,75.25
2022-10-03T18:50:11.401Z,75.36
2022-10-03T18:52:52.395Z,75.41
2022-10-03T18:55:27.848Z,75.43
2022-10-03T18:58:13.324Z,75.33
2022-10-03T19:00:51.389Z,75.52
2022-10-03T19:03:24.339Z,75.84
2022-10-03T19:05:58.245Z,75.85
2022-10-03T19:08:31.523Z,75.91
2022-10-03T19:11:12.988Z,76.10
2022-10-03T19:13:49.392Z,76.26
2022-10-03T19:16:43.202Z,75.90
2022-10-03T19:19:16.364Z,76.08
2022-10-03T19:21:45.466Z,75.98
2022-10-03T19:24:34.424Z,75.88
2022-10-03T19:27:14.975Z,76.09
2022-10-03T19:29:46.462Z,76.38
2022-10-03T19:32:23.335Z,76.50
2022-10-03T19:34:52.912Z,76.22
2022-10-03T19:37:44.545Z,76.31
2022-10-03T19:40:31.178Z,76.18
2022-10-03T19:43:05.738Z,76.30
2022-10-03T19:45:49.811Z,76.06
2022-10-03T19:48:18.454Z,75.93
2022-10-03T19:50:46.298Z,76.26
2022-10-03T19:53:20.216Z,76.03
2022-10-03T19:55:51.633Z,75.80
2022-10-03T19:58:24.294Z,75.98
2022-10-03T20:00:55.176Z,76.07
2022-10-03T20:03:35.737Z,76.05
2022-10-03T20:06:09.471Z,76.10
2022-10-03T20:08:49.437Z,76.23
2022-10-03T20:11:33.342Z,76.18
2022-10-03T20:14:02.604Z,76.45
2022-10-03T20:16:35.920Z,76.20
2022-10-03T20:19:10.633Z,76.40
2022-10-03T20:21:38.507Z,76.37
2022-10-03T20:24:14.216Z,76.38
2022-10-03T20:26:50.554Z,76.17
2022-10-03T20:29:27.312Z,76.37
2022-10-03T20:32:00.919Z,76.13
2022-10-03T20:34:29.493Z,76.03
2022-10-03T20:37:27.877Z,75.96
2022-10-03T20:40:01.976Z,75.82
2022-10-03T20:42:39.762Z,75.95
2022-10-03T20:45:16.881Z,75.60
2022-10-03T20:48:05.975Z,75.65
2022-10-03T20:50:40.567Z,76.02
2022-10-03T20:53:17.231Z,76.17
2022-10-03T20:55:49.807Z,76.52
2022-10-03T20:58:29.831Z,77.01
2022-10-03T21:01:03.300Z,76.93
2022-10-03T21:03:39.354Z,77.40
2022-10-03T21:06:30.228Z,77.21
2022-10-03T21:09:05.513Z,77.53
2022-10-03T21:11:40.931Z,77.63
2022-10-03T21:14:19.372Z,77.48
2022-10-03T21:16:51.947Z,77.23
2022-10-03T21:19:25.722Z,77.36
2022-10-03T21:21:56.750Z,77.82
2022-10-03T21:24:28.777Z,77.43
2022-10-03T21:27:03.437Z,77.62
2022-10-03T21:29:34.988Z,77.67
2022-10-03T21:32:25.205Z,77.57
2022-10-03T21:35:10.636Z,77.05
2022-10-03T21:37:49.868Z,77.64
2022-10-03T21:40:35.464Z,77.33
2022-10-03T21:43:36.057Z,77.61
2022-10-03T21:46:14.602Z,77.76
2022-10-03T21:49:09.588Z,77.19
2022-10-03T21:51:41.470Z,78.02
2022-10-03T21:54:32.092Z,77.34
2022-10-03T21:57:15.188Z,78.13
2022-10-03T22:00:11.620Z,78.05
2022-10-03T22:02:52.136Z,77.65
2022-10-03T22:05:36.140Z,77.58
2022-10-03T22:08:22.303Z,77.81
2022-10-03T22:11:15.127Z,77.92
2022-10-03T22:13:49.900Z,77.55
2022-10-03T22:16:32.128Z,78.24
2022-10-03T22:19:27.478Z,78.35
2022-10-03T22:22:21.509Z,78.31
2022-10-03T22:25:06.974Z,78.11
2022-10-03T22:27:42.936Z,77.96
2022-10-03T22:30:15.829Z,78.01
2022-10-03T22:33:10.447Z,77.41
2022-10-03T22:35:52.647Z,77.68
2022-10-03T22:38:25.761Z,77.87
2022-10-03T22:40:56.190Z,77.34
2022-10-03T22:43:25.937Z,77.24
2022-10-03T22:45:56.048Z,77.08
2022-10-03T22:48:28.839Z,77.44
2022-10-03T22:50:59.293Z,76.97
2022-10-03T22:53:32.286Z,77.54
2022-10-03T22:56:02.535Z,76.97
2022-10-03T22:58:36.888Z,76.79
2022-10-03T23:01:08.603Z,76.77
2022-10-03T23:03:39.981Z,76.89
2022-10-03T23:06:39.163Z,77.08
2022-10-03T23:09:22.891Z,76.95
2022-10-03T23:11:54.843Z,76.91
2022-10-03T23:14:26.526Z,76.89
2022-10-03T23:17:10.346Z,77.53
2022-10-03T23:19:53.878Z,77.64
2022-10-03T23:22:27.643Z,77.18
2022-10-03T23:25:02.094Z,77.34
2022-10-03T23:28:11.206Z,77.75
2022-10-03T23:30:50.708Z,77.83
2022-10-03T23:33:55.586Z,77.86
2022-10-03T23:36:25.390Z,78.48
2022-10-03T23:39:01.933Z,78.04
2022-10-03T23:41:57.345Z,78.13
2022-10-03T23:44:49.476Z,78.10
2022-10-03T23:47:48.500Z,78.34
2022-10-03T23:53:31.395Z,78.67
2022-10-03T23:56:03.315Z,77.97
2022-10-03T23:58:33.756Z,78.29
